Time;durP1;ratioP1;P1;durP2;ratioP2;P2;SDS_P1;SDS_P2;PMS_P1;PMS_P2;Temp;Humidity;BMP_temperature;BMP_pressure;BME280_temperature;BME280_humidity;BME280_pressure;Samples;Min_cycle;Max_cycle;Signal;HPM_P1;HPM_P2
2021/12/22 00:01:09;;;;;;;6.30;2.30;;;;;;;-8.72;58.86;99368.77;24467;1354;3028231;-64
2021/12/22 00:03:40;;;;;;;6.10;2.20;;;;;;;-8.95;58.68;99375.88;24431;1357;3049817;-63
2021/12/22 00:06:29;;;;;;;4.30;2.40;;;;;;;-9.47;59.94;99385.65;24432;1361;3057977;-58
2021/12/22 00:08:58;;;;;;;6.10;2.40;;;;;;;-9.74;61.30;99384.98;24414;1354;3025159;-57
2021/12/22 00:11:27;;;;;;;5.10;2.70;;;;;;;-9.78;61.20;99388.13;24439;1354;3027390;-62
2021/12/22 00:13:56;;;;;;;2.70;1.30;;;;;;;-9.81;61.03;99383.31;24478;1355;3027284;-57
2021/12/22 00:16:25;;;;;;;4.80;1.60;;;;;;;-9.52;61.65;99385.05;24443;1361;3048203;-59
2021/12/22 00:18:54;;;;;;;2.80;1.80;;;;;;;-8.85;60.18;99386.73;24454;1359;3024834;-58
2021/12/22 00:21:23;;;;;;;4.90;2.50;;;;;;;-8.93;60.04;99381.86;24462;1355;3057339;-59
2021/12/22 00:23:52;;;;;;;3.90;2.70;;;;;;;-9.14;60.50;99388.13;24460;1356;3025115;-60
2021/12/22 00:26:21;;;;;;;3.90;2.20;;;;;;;-9.57;61.31;99389.02;24526;1351;3049632;-60
2021/12/22 00:28:51;;;;;;;4.50;2.50;;;;;;;-9.72;61.85;99387.05;24402;1354;3026155;-61
2021/12/22 00:31:43;;;;;;;4.80;2.60;;;;;;;-9.88;62.31;99381.30;24395;1360;3050806;-59
2021/12/22 00:34:16;;;;;;;2.70;1.60;;;;;;;-10.14;63.25;99389.58;24450;1354;3053686;-61
2021/12/22 00:36:45;;;;;;;8.90;1.80;;;;;;;-9.52;62.45;99383.69;24428;1354;3051029;-60
2021/12/22 00:39:15;;;;;;;5.80;2.40;;;;;;;-8.66;60.58;99384.64;24421;1351;3025911;-56
2021/12/22 00:41:44;;;;;;;6.20;2.70;;;;;;;-8.70;59.60;99385.11;24473;1354;3050601;-62
2021/12/22 00:44:13;;;;;;;7.50;3.00;;;;;;;-8.81;59.87;99393.26;24436;1359;3025187;-58
2021/12/22 00:46:43;;;;;;;4.50;2.90;;;;;;;-9.06;60.11;99395.39;24422;1360;3048109;-58
2021/12/22 00:49:11;;;;;;;8.10;3.70;;;;;;;-9.39;60.74;99391.23;24461;1358;3025675;-59
2021/12/22 00:51:40;;;;;;;8.80;3.50;;;;;;;-9.60;61.66;99387.61;24472;1359;3057342;-61
2021/12/22 00:54:09;;;;;;;6.40;3.80;;;;;;;-9.71;62.20;99388.60;24422;1358;3028670;-62
2021/12/22 00:56:38;;;;;;;2.40;1.70;;;;;;;-9.84;62.45;99395.45;24489;1360;3052789;-59
2021/12/22 00:59:07;;;;;;;6.30;2.60;;;;;;;-9.63;62.73;99402.48;24391;1359;3026698;-58
2021/12/22 01:01:36;;;;;;;6.10;2.90;;;;;;;-9.10;61.16;99398.20;24395;1354;3053091;-58
2021/12/22 01:04:05;;;;;;;5.60;3.30;;;;;;;-9.00;60.49;99396.67;24482;1358;3024839;-59
2021/12/22 01:06:35;;;;;;;8.00;2.90;;;;;;;-9.27;60.78;99407.23;24447;1361;3047439;-57
2021/12/22 01:09:05;;;;;;;6.20;2.60;;;;;;;-9.61;61.56;99402.36;24495;1359;3026722;-57
2021/12/22 01:11:34;;;;;;;4.90;2.40;;;;;;;-9.89;62.45;99396.88;24413;1359;3025091;-59
2021/12/22 01:14:03;;;;;;;8.10;3.80;;;;;;;-9.77;61.74;99401.20;24404;1354;3025147;-60
2021/12/22 01:16:55;;;;;;;2.80;1.70;;;;;;;-9.95;62.38;99401.66;24479;1355;3050953;-61
2021/12/22 01:19:33;;;;;;;3.40;2.00;;;;;;;-9.61;62.56;99404.03;24496;1356;3025917;-60
2021/12/22 01:25:13;;;;;;;2.30;1.80;;;;;;;-8.94;59.75;99415.44;24352;1367;3051455;-58
2021/12/22 01:27:43;;;;;;;6.30;2.80;;;;;;;-9.27;60.52;99413.67;24353;1361;3025910;-56
2021/12/22 01:30:19;;;;;;;3.80;2.10;;;;;;;-9.47;61.03;99412.29;24435;1360;3026113;-57
2021/12/22 01:32:50;;;;;;;5.60;2.70;;;;;;;-9.34;60.09;99416.59;24440;1355;3069557;-59
2021/12/22 01:35:21;;;;;;;7.50;2.90;;;;;;;-10.01;62.16;99419.85;24468;1361;3026259;-60
2021/12/22 01:37:50;;;;;;;3.20;1.50;;;;;;;-10.03;62.59;99417.77;24463;1354;3027462;-58
2021/12/22 01:40:20;;;;;;;4.50;1.80;;;;;;;-9.56;62.16;99417.36;24439;1354;3027195;-60
2021/12/22 01:42:50;;;;;;;7.70;3.20;;;;;;;-8.83;60.15;99414.78;24370;1363;3026184;-59
2021/12/22 01:51:44;;;;;;;4.70;2.60;;;;;;;-9.03;59.22;99420.89;24452;1356;3052784;-60
2021/12/22 01:54:35;;;;;;;4.10;2.70;;;;;;;-9.35;59.93;99425.23;24489;1359;3069447;-59
2021/12/22 01:57:09;;;;;;;4.30;2.10;;;;;;;-9.56;60.50;99424.33;24436;1361;3050707;-60
2021/12/22 01:59:41;;;;;;;2.50;1.20;;;;;;;-9.64;60.93;99427.73;24448;1360;3053345;-57
2021/12/22 02:02:11;;;;;;;4.00;2.20;;;;;;;-9.30;60.97;99426.66;24453;1360;3025006;-58
2021/12/22 02:04:41;;;;;;;3.50;2.00;;;;;;;-8.70;59.91;99430.63;24470;1360;3026831;-57
2021/12/22 02:07:11;;;;;;;4.30;2.10;;;;;;;-8.41;58.51;99426.30;24504;1361;3026853;-59
2021/12/22 02:10:01;;;;;;;5.60;3.20;;;;;;;-8.77;58.54;99421.84;24460;1360;3025667;-60
2021/12/22 02:12:33;;;;;;;11.10;5.50;;;;;;;-8.97;58.87;99431.85;24439;1354;3052737;-60
2021/12/22 02:15:04;;;;;;;12.20;4.70;;;;;;;-9.34;60.00;99434.58;24465;1360;3025927;-57
2021/12/22 02:17:35;;;;;;;12.50;5.20;;;;;;;-9.52;60.32;99431.54;24461;1361;3026928;-60
2021/12/22 02:20:05;;;;;;;4.40;2.60;;;;;;;-9.57;60.36;99439.22;24439;1363;3026507;-61
2021/12/22 02:22:35;;;;;;;8.70;3.10;;;;;;;-9.85;61.27;99445.43;24457;1358;3025174;-59
2021/12/22 02:25:12;;;;;;;9.00;4.20;;;;;;;-9.24;60.44;99447.30;24430;1356;3026505;-60
2021/12/22 02:27:51;;;;;;;15.90;6.10;;;;;;;-8.77;59.12;99447.14;24433;1361;3048165;-60
2021/12/22 02:30:26;;;;;;;13.10;4.40;;;;;;;-8.68;58.24;99450.69;24433;1359;3054206;-59
2021/12/22 02:35:41;;;;;;;6.60;2.90;;;;;;;-9.35;59.40;99444.23;24439;1357;3025507;-61
2021/12/22 02:38:18;;;;;;;11.80;6.10;;;;;;;-9.82;61.19;99450.59;24445;1361;3054746;-62
2021/12/22 02:40:50;;;;;;;10.70;4.10;;;;;;;-10.06;61.85;99452.80;24467;1354;3050228;-61
2021/12/22 02:43:22;;;;;;;8.10;3.40;;;;;;;-9.94;61.63;99449.16;24475;1361;3026681;-60
2021/12/22 02:45:51;;;;;;;9.70;4.10;;;;;;;-9.47;61.33;99456.39;24464;1355;3025835;-59
2021/12/22 02:48:21;;;;;;;14.60;6.10;;;;;;;-8.96;59.99;99453.61;24463;1358;3027060;-60
2021/12/22 02:50:50;;;;;;;9.70;4.20;;;;;;;-8.75;59.35;99456.34;24423;1359;3025581;-57
2021/12/22 02:53:20;;;;;;;7.90;4.40;;;;;;;-9.12;59.73;99458.23;24408;1359;3047300;-54
2021/12/22 02:55:58;;;;;;;6.40;2.90;;;;;;;-9.32;60.40;99460.94;24440;1360;3026370;-58
2021/12/22 03:03:50;;;;;;;2.90;1.80;;;;;;;-10.04;61.68;99468.77;24469;1361;3053134;-59
2021/12/22 03:06:29;;;;;;;4.00;2.70;;;;;;;-9.55;61.97;99473.16;24498;1354;3053883;-61
2021/12/22 03:08:58;;;;;;;3.30;2.50;;;;;;;-8.79;59.34;99475.47;24473;1360;3058051;-60
2021/12/22 03:11:28;;;;;;;4.10;2.10;;;;;;;-8.96;59.46;99474.32;24442;1360;3026005;-62
2021/12/22 03:13:57;;;;;;;4.60;2.80;;;;;;;-9.22;59.73;99473.15;24497;1358;3025261;-57
2021/12/22 03:16:26;;;;;;;6.40;2.60;;;;;;;-9.33;60.03;99475.84;24435;1354;3054599;-58
2021/12/22 03:18:55;;;;;;;4.40;2.60;;;;;;;-9.56;60.43;99474.70;24450;1362;3028901;-59
2021/12/22 03:21:24;;;;;;;5.30;3.00;;;;;;;-9.64;60.31;99482.35;24475;1357;3028308;-59
2021/12/22 03:23:54;;;;;;;4.20;1.30;;;;;;;-9.62;60.13;99489.17;24431;1359;3058065;-60
2021/12/22 03:26:25;;;;;;;3.20;2.00;;;;;;;-9.80;60.37;99493.86;24409;1361;3025449;-55
2021/12/22 03:28:54;;;;;;;4.20;1.80;;;;;;;-9.36;59.17;99495.43;24416;1361;3026625;-60
2021/12/22 03:31:23;;;;;;;3.10;2.00;;;;;;;-8.95;57.47;99507.42;24434;1358;3025917;-59
2021/12/22 03:33:53;;;;;;;4.80;2.00;;;;;;;-8.83;57.18;99510.37;24426;1361;3047867;-58
2021/12/22 03:36:22;;;;;;;5.40;2.30;;;;;;;-9.38;57.09;99511.02;24415;1355;3026165;-56
2021/12/22 03:38:51;;;;;;;5.70;2.30;;;;;;;-9.56;57.67;99507.27;24452;1359;3027017;-57
2021/12/22 03:41:20;;;;;;;2.10;1.70;;;;;;;-9.71;57.85;99511.01;24477;1360;3047405;-62
2021/12/22 03:43:49;;;;;;;5.70;2.50;;;;;;;-10.15;58.34;99510.19;24492;1359;3025228;-59
2021/12/22 03:46:18;;;;;;;2.80;1.10;;;;;;;-10.26;58.65;99515.88;24467;1358;3056786;-61
2021/12/22 03:48:47;;;;;;;3.40;1.60;;;;;;;-9.64;58.03;99514.53;24415;1360;3026904;-59
2021/12/22 03:51:16;;;;;;;4.80;1.60;;;;;;;-9.01;55.47;99518.69;24497;1357;3049485;-61
2021/12/22 03:53:45;;;;;;;5.30;2.00;;;;;;;-9.11;55.32;99518.35;24479;1359;3026988;-57
2021/12/22 03:56:14;;;;;;;2.50;1.10;;;;;;;-9.36;55.55;99517.83;24486;1360;3049823;-59
2021/12/22 03:58:43;;;;;;;4.00;2.00;;;;;;;-9.71;56.14;99530.16;24495;1358;3027056;-58
2021/12/22 04:01:12;;;;;;;3.40;1.90;;;;;;;-9.86;56.41;99526.79;24479;1357;3047310;-58
2021/12/22 04:03:43;;;;;;;2.60;1.50;;;;;;;-9.93;56.37;99532.56;24479;1356;3024970;-59
2021/12/22 04:06:13;;;;;;;2.80;1.90;;;;;;;-10.26;57.47;99529.77;24508;1359;3068914;-60
2021/12/22 04:08:42;;;;;;;4.10;1.50;;;;;;;-9.74;57.39;99529.58;24476;1360;3027022;-62
2021/12/22 04:11:11;;;;;;;6.10;2.20;;;;;;;-9.15;55.39;99536.92;24490;1359;3049195;-59
2021/12/22 04:13:40;;;;;;;6.20;2.40;;;;;;;-9.08;54.88;99538.09;24471;1358;3025338;-60
2021/12/22 04:16:09;;;;;;;6.20;2.50;;;;;;;-9.09;54.97;99541.96;24452;1355;3053388;-61
2021/12/22 04:18:38;;;;;;;6.10;2.70;;;;;;;-9.26;54.84;99547.40;24492;1354;3025325;-58
2021/12/22 04:21:07;;;;;;;5.10;2.00;;;;;;;-9.59;55.51;99551.46;24447;1360;3050643;-59
2021/12/22 04:23:54;;;;;;;3.50;2.00;;;;;;;-9.72;55.87;99556.26;24402;1359;3052829;-61
2021/12/22 04:26:23;;;;;;;4.50;1.70;;;;;;;-10.03;56.90;99566.90;24466;1355;3026840;-55
2021/12/22 04:28:53;;;;;;;1.90;0.70;;;;;;;-10.24;57.62;99565.55;24457;1360;3047792;-59
2021/12/22 04:31:25;;;;;;;1.90;1.10;;;;;;;-9.48;57.08;99569.32;24518;1359;3025393;-61
2021/12/22 04:33:53;;;;;;;4.30;1.90;;;;;;;-8.88;55.64;99566.99;24448;1360;3025427;-58
2021/12/22 04:36:22;;;;;;;7.10;1.80;;;;;;;-8.57;54.37;99568.05;24438;1354;3047412;-61
2021/12/22 04:38:51;;;;;;;1.50;1.10;;;;;;;-8.95;54.23;99572.80;24504;1355;3026528;-61
2021/12/22 04:41:20;;;;;;;3.00;1.70;;;;;;;-9.28;54.73;99575.35;24480;1355;3053657;-63
2021/12/22 04:43:49;;;;;;;3.60;2.10;;;;;;;-9.40;55.18;99574.27;24515;1357;3025307;-59
2021/12/22 04:46:20;;;;;;;4.10;2.10;;;;;;;-9.69;55.88;99580.73;24518;1358;3050088;-61
2021/12/22 04:48:49;;;;;;;3.70;1.60;;;;;;;-9.90;56.17;99580.94;24491;1358;3027461;-59
2021/12/22 04:51:29;;;;;;;6.20;1.70;;;;;;;-9.65;56.68;99582.67;24187;1358;3410118;-58
2021/12/22 04:54:06;;;;;;;6.50;2.00;;;;;;;-9.28;56.42;99581.63;24480;1353;3052074;-58
2021/12/22 04:56:39;;;;;;;9.30;3.90;;;;;;;-8.12;54.25;99588.87;24479;1359;3057370;-58
2021/12/22 04:59:10;;;;;;;13.70;6.60;;;;;;;-8.54;53.01;99583.23;24499;1358;3028121;-58
2021/12/22 05:01:40;;;;;;;22.00;7.00;;;;;;;-8.73;53.82;99587.46;24515;1358;3026769;-62
2021/12/22 05:04:09;;;;;;;11.30;4.80;;;;;;;-9.22;55.03;99587.02;24544;1358;3025910;-60
2021/12/22 05:06:38;;;;;;;17.50;5.20;;;;;;;-9.16;54.91;99589.50;24481;1355;3026777;-58
2021/12/22 05:09:08;;;;;;;24.40;8.60;;;;;;;-9.79;56.70;99592.39;24505;1355;3052118;-61
2021/12/22 05:11:36;;;;;;;9.00;3.50;;;;;;;-9.95;57.84;99594.70;24511;1355;3027335;-60
2021/12/22 05:14:07;;;;;;;20.00;5.40;;;;;;;-9.49;58.20;99597.11;24506;1357;3047866;-59
2021/12/22 05:16:45;;;;;;;13.50;3.90;;;;;;;-8.62;56.64;99601.75;24476;1356;3026191;-56
2021/12/22 05:19:15;;;;;;;15.00;4.40;;;;;;;-8.48;54.68;99607.77;24489;1358;3052499;-60
2021/12/22 05:21:44;;;;;;;7.20;3.60;;;;;;;-9.16;56.58;99607.50;24501;1358;3026379;-60
2021/12/22 05:24:14;;;;;;;13.60;5.40;;;;;;;-9.33;56.89;99616.80;24481;1358;3028629;-60
2021/12/22 05:26:43;;;;;;;9.00;3.90;;;;;;;-9.85;58.16;99613.43;24506;1355;3025510;-59
2021/12/22 05:29:12;;;;;;;6.70;2.80;;;;;;;-9.89;57.76;99623.34;24497;1356;3026717;-63
2021/12/22 05:31:42;;;;;;;7.20;2.40;;;;;;;-10.06;58.36;99621.23;24470;1355;3047031;-61
2021/12/22 05:34:11;;;;;;;4.10;2.70;;;;;;;-9.64;58.19;99632.37;24542;1356;3026456;-61
2021/12/22 05:36:40;;;;;;;7.80;2.80;;;;;;;-9.01;56.74;99638.36;24496;1361;3070107;-60
2021/12/22 05:39:09;;;;;;;16.30;5.90;;;;;;;-8.53;55.21;99642.52;24463;1358;3026063;-62
2021/12/22 05:41:38;;;;;;;12.90;5.70;;;;;;;-9.06;55.11;99646.41;24462;1354;3049035;-60
2021/12/22 05:44:08;;;;;;;10.00;4.90;;;;;;;-9.66;56.44;99649.83;24466;1358;3025206;-60
2021/12/22 05:46:37;;;;;;;10.10;4.50;;;;;;;-9.79;56.30;99654.57;24471;1358;3026786;-62
2021/12/22 05:49:06;;;;;;;9.80;4.40;;;;;;;-10.60;58.43;99652.90;24504;1354;3025297;-58
2021/12/22 05:51:35;;;;;;;5.10;2.60;;;;;;;-10.41;57.88;99652.52;24465;1354;3069387;-61
2021/12/22 05:54:04;;;;;;;3.90;2.30;;;;;;;-9.75;57.91;99655.17;24481;1354;3025176;-60
2021/12/22 05:56:35;;;;;;;6.80;2.20;;;;;;;-8.99;55.20;99660.62;24467;1354;3051562;-56
2021/12/22 05:59:05;;;;;;;10.20;3.50;;;;;;;-8.94;54.17;99646.98;24492;1357;3026187;-57
2021/12/22 06:01:34;;;;;;;8.30;3.20;;;;;;;-9.55;54.91;99650.58;24471;1354;3027328;-57
2021/12/22 06:04:04;;;;;;;5.70;2.50;;;;;;;-9.79;55.30;99654.42;24452;1354;3052340;-60
2021/12/22 06:06:33;;;;;;;5.00;2.90;;;;;;;-9.94;55.60;99659.15;24377;1359;3025217;-57
2021/12/22 06:09:02;;;;;;;3.70;2.00;;;;;;;-10.53;57.09;99657.98;24473;1357;3025838;-61
2021/12/22 06:11:50;;;;;;;3.30;1.80;;;;;;;-10.37;58.11;99656.88;24496;1359;3050124;-62
2021/12/22 06:14:19;;;;;;;4.90;1.60;;;;;;;-9.57;57.06;99661.21;24449;1354;3026694;-55
2021/12/22 06:16:49;;;;;;;3.90;2.30;;;;;;;-9.02;55.22;99661.94;24455;1359;3053885;-59
2021/12/22 06:19:19;;;;;;;19.40;5.30;;;;;;;-9.53;55.72;99668.61;24485;1354;3025564;-58
2021/12/22 06:21:50;;;;;;;4.90;2.80;;;;;;;-10.04;57.29;99675.31;24418;1354;3047935;-61
2021/12/22 06:24:19;;;;;;;6.50;2.10;;;;;;;-10.49;58.22;99677.38;24457;1354;3025341;-61
2021/12/22 06:26:47;;;;;;;4.70;2.50;;;;;;;-10.43;58.17;99681.30;24441;1360;3025107;-63
2021/12/22 06:29:16;;;;;;;3.40;1.50;;;;;;;-10.56;59.09;99686.03;24458;1354;3051828;-62
2021/12/22 06:31:45;;;;;;;7.00;4.50;;;;;;;-9.32;58.22;99695.86;24450;1357;3025104;-63
2021/12/22 06:34:14;;;;;;;6.80;3.20;;;;;;;-8.72;55.22;99685.98;24480;1354;3054656;-60
2021/12/22 06:36:43;;;;;;;11.10;5.00;;;;;;;-9.56;56.62;99686.50;24465;1354;3026749;-63
2021/12/22 06:39:14;;;;;;;11.10;5.30;;;;;;;-10.24;59.15;99684.14;24487;1357;3051720;-59
2021/12/22 06:41:43;;;;;;;8.70;3.90;;;;;;;-10.21;59.49;99692.34;24515;1354;3025747;-61
2021/12/22 06:44:13;;;;;;;8.90;4.70;;;;;;;-10.64;60.59;99693.24;24448;1354;3026214;-59
2021/12/22 06:46:42;;;;;;;6.70;2.60;;;;;;;-10.61;61.20;99688.27;24477;1360;3053045;-62
2021/12/22 06:49:11;;;;;;;6.60;3.20;;;;;;;-10.14;61.26;99684.73;24463;1354;3026854;-60
2021/12/22 06:51:40;;;;;;;5.70;2.70;;;;;;;-9.26;59.22;99694.50;24466;1357;3026866;-57
2021/12/22 06:54:09;;;;;;;8.30;3.50;;;;;;;-9.25;58.65;99689.92;24495;1354;3053861;-60
2021/12/22 06:56:38;;;;;;;6.70;4.10;;;;;;;-9.30;58.28;99686.27;24503;1354;3027147;-57
2021/12/22 06:59:07;;;;;;;7.00;4.50;;;;;;;-9.67;59.06;99686.77;24475;1351;3050529;-60
2021/12/22 07:01:36;;;;;;;6.40;4.00;;;;;;;-9.88;59.79;99697.44;24439;1354;3025320;-61
2021/12/22 07:04:05;;;;;;;4.10;2.10;;;;;;;-10.30;60.60;99696.36;24462;1357;3047193;-59
2021/12/22 07:06:34;;;;;;;4.00;2.30;;;;;;;-10.12;60.99;99695.29;24441;1350;3024896;-61
2021/12/22 07:09:04;;;;;;;7.40;3.00;;;;;;;-9.30;59.63;99696.27;24471;1360;3068743;-61
2021/12/22 07:11:34;;;;;;;5.50;2.70;;;;;;;-8.69;57.55;99702.52;24468;1354;3025912;-62
2021/12/22 07:14:03;;;;;;;6.20;3.80;;;;;;;-9.07;57.74;99709.33;24438;1354;3024769;-59
2021/12/22 07:16:32;;;;;;;6.60;3.80;;;;;;;-9.68;59.23;99711.34;24468;1357;3026750;-58
2021/12/22 07:19:01;;;;;;;7.60;3.10;;;;;;;-9.60;58.80;99703.55;24488;1354;3025342;-61
2021/12/22 07:21:31;;;;;;;7.50;4.00;;;;;;;-9.64;58.51;99709.73;24466;1357;3053215;-61
2021/12/22 07:24:00;;;;;;;7.20;3.20;;;;;;;-9.98;59.41;99707.52;24361;1360;3026891;-60
2021/12/22 07:26:30;;;;;;;3.20;2.20;;;;;;;-10.31;60.73;99707.67;24449;1353;3047261;-62
2021/12/22 07:28:59;;;;;;;5.40;2.80;;;;;;;-9.29;59.42;99701.05;24461;1353;3025913;-62
2021/12/22 07:31:28;;;;;;;7.80;3.70;;;;;;;-8.37;56.53;99705.18;24441;1354;3026957;-62
2021/12/22 07:34:06;;;;;;;7.70;4.00;;;;;;;-8.65;56.32;99695.65;24477;1358;3025423;-60
2021/12/22 07:36:41;;;;;;;10.20;3.60;;;;;;;-8.95;56.87;99695.19;24462;1354;3050079;-59
2021/12/22 07:39:10;;;;;;;4.70;2.90;;;;;;;-9.15;56.89;99705.10;24487;1358;3050926;-62
2021/12/22 07:41:39;;;;;;;8.20;4.20;;;;;;;-9.33;57.42;99703.50;24429;1358;3025429;-60
2021/12/22 07:44:08;;;;;;;11.30;4.20;;;;;;;-9.67;58.63;99706.59;24463;1354;3053175;-62
2021/12/22 07:46:36;;;;;;;10.60;4.00;;;;;;;-9.86;59.30;99702.05;24438;1355;3027488;-61
2021/12/22 07:49:05;;;;;;;6.60;3.10;;;;;;;-9.49;60.09;99706.84;24467;1354;3047347;-61
2021/12/22 07:51:35;;;;;;;10.00;4.60;;;;;;;-8.58;57.64;99705.47;24475;1358;3026321;-63
2021/12/22 07:54:05;;;;;;;14.50;5.30;;;;;;;-8.50;56.93;99708.49;24452;1353;3069362;-59
2021/12/22 07:56:34;;;;;;;10.00;4.70;;;;;;;-8.32;56.29;99706.98;24448;1354;3025552;-62
2021/12/22 07:59:02;;;;;;;9.90;5.10;;;;;;;-8.33;56.28;99706.97;24434;1357;3025014;-59
2021/12/22 08:01:32;;;;;;;9.30;4.90;;;;;;;-8.66;56.53;99711.25;24510;1357;3067089;-60
2021/12/22 08:04:02;;;;;;;6.80;3.90;;;;;;;-8.61;56.50;99708.13;24504;1354;3027126;-64
2021/12/22 08:06:31;;;;;;;10.10;4.60;;;;;;;-8.99;57.93;99707.67;24451;1353;3025775;-59
2021/12/22 08:09:01;;;;;;;11.60;4.90;;;;;;;-9.26;58.87;99713.35;24473;1357;3025424;-61
2021/12/22 08:11:30;;;;;;;2.80;2.20;;;;;;;-8.97;57.58;99715.70;24435;1354;3047081;-64
2021/12/22 08:13:59;;;;;;;5.50;2.80;;;;;;;-9.00;57.95;99707.48;24436;1358;3029432;-62
2021/12/22 08:16:28;;;;;;;9.10;4.50;;;;;;;-8.39;57.16;99708.73;24535;1354;3070697;-62
2021/12/22 08:18:57;;;;;;;10.20;3.40;;;;;;;-7.94;55.77;99703.60;24432;1357;3025487;-55
2021/12/22 08:21:26;;;;;;;9.10;3.70;;;;;;;-7.53;54.32;99707.52;24511;1355;3049449;-60
2021/12/22 08:23:55;;;;;;;8.60;4.40;;;;;;;-8.00;54.40;99713.52;24526;1355;3025093;-61
2021/12/22 08:26:24;;;;;;;9.10;4.20;;;;;;;-8.23;55.06;99717.02;24529;1357;3054529;-62
2021/12/22 08:28:55;;;;;;;9.50;5.20;;;;;;;-8.51;55.39;99718.02;24510;1354;3025134;-63
2021/12/22 08:31:24;;;;;;;8.50;3.40;;;;;;;-8.52;55.87;99719.19;24445;1356;3050692;-60
2021/12/22 08:33:54;;;;;;;8.00;3.80;;;;;;;-8.68;55.64;99720.38;24393;1355;3025809;-59
2021/12/22 08:40:03;;;;;;;7.60;3.60;;;;;;;-8.57;56.18;99717.22;15731;1361;3070555;-63
2021/12/22 08:42:34;;;;;;;5.60;2.90;;;;;;;-8.76;56.95;99713.59;24476;1357;3050108;-62
2021/12/22 08:45:05;;;;;;;9.80;4.90;;;;;;;-8.52;56.80;99711.87;24486;1358;3025654;-63
2021/12/22 08:47:34;;;;;;;11.40;6.90;;;;;;;-8.50;57.10;99712.92;24483;1360;3069451;-59
2021/12/22 08:50:05;;;;;;;10.60;4.90;;;;;;;-8.52;57.40;99716.27;24463;1357;3026694;-61
2021/12/22 08:52:34;;;;;;;12.20;6.00;;;;;;;-8.45;57.57;99716.76;24487;1353;3051089;-64
2021/12/22 08:55:08;;;;;;;12.00;6.60;;;;;;;-8.32;57.23;99715.13;24466;1354;3069258;-61
2021/12/22 08:57:38;;;;;;;10.30;5.00;;;;;;;-8.04;56.53;99716.86;24478;1354;3025304;-62
2021/12/22 09:00:09;;;;;;;9.30;5.10;;;;;;;-7.90;56.32;99717.79;24472;1353;3025642;-61
2021/12/22 09:02:39;;;;;;;14.10;7.20;;;;;;;-8.10;56.54;99712.98;24462;1354;3026333;-61
2021/12/22 09:05:08;;;;;;;21.30;8.20;;;;;;;-8.21;57.50;99710.75;24431;1358;3026699;-63
2021/12/22 09:07:37;;;;;;;16.00;7.80;;;;;;;-8.24;57.53;99705.78;24419;1360;3027420;-62
2021/12/22 09:10:07;;;;;;;15.50;6.90;;;;;;;-7.86;57.03;99701.87;24470;1354;3052884;-61
2021/12/22 09:12:37;;;;;;;9.00;4.50;;;;;;;-7.70;55.92;99709.29;24422;1358;3026712;-65
2021/12/22 09:15:07;;;;;;;14.20;6.70;;;;;;;-7.64;55.70;99703.27;24486;1353;3025534;-64
2021/12/22 09:17:37;;;;;;;13.90;5.50;;;;;;;-7.91;56.14;99706.38;24452;1358;3051857;-64
2021/12/22 09:20:06;;;;;;;16.60;7.70;;;;;;;-8.21;56.93;99690.36;24456;1358;3025284;-63
2021/12/22 09:22:36;;;;;;;17.60;7.20;;;;;;;-7.84;56.73;99700.20;24415;1357;3053091;-61
2021/12/22 09:25:05;;;;;;;15.80;6.40;;;;;;;-7.60;56.38;99695.17;24491;1354;3027072;-59
2021/12/22 09:27:34;;;;;;;16.20;7.10;;;;;;;-7.59;56.53;99696.53;24469;1354;3047492;-63
2021/12/22 09:30:04;;;;;;;13.80;6.00;;;;;;;-7.63;57.33;99689.67;24470;1357;3025566;-60
2021/12/22 09:32:34;;;;;;;13.20;6.40;;;;;;;-7.49;56.57;99695.84;24467;1360;3025497;-64
2021/12/22 09:35:04;;;;;;;8.30;4.40;;;;;;;-7.59;57.02;99694.33;24491;1359;3026258;-63
2021/12/22 09:37:33;;;;;;;17.50;8.10;;;;;;;-7.71;57.31;99698.56;24559;1354;3053012;-60
2021/12/22 09:40:03;;;;;;;14.80;6.90;;;;;;;-7.62;57.74;99699.55;24485;1351;3025091;-59
2021/12/22 09:42:32;;;;;;;16.20;6.60;;;;;;;-7.72;58.80;99701.44;24506;1357;3047569;-63
2021/12/22 09:45:02;;;;;;;15.90;7.50;;;;;;;-7.55;58.18;99712.77;24520;1354;3026751;-61
2021/12/22 09:47:47;;;;;;;17.80;7.30;;;;;;;-7.87;59.69;99704.75;24445;1358;3069584;-63
2021/12/22 09:50:24;;;;;;;11.20;5.70;;;;;;;-7.79;59.74;99704.02;24432;1357;3050545;-60
2021/12/22 09:52:53;;;;;;;16.10;7.20;;;;;;;-7.53;59.29;99704.63;24490;1348;3051179;-63
2021/12/22 09:55:22;;;;;;;14.20;5.90;;;;;;;-7.45;57.97;99702.89;24431;1354;3025495;-60
2021/12/22 09:57:51;;;;;;;13.90;7.10;;;;;;;-7.55;57.05;99707.33;24481;1357;3050127;-61
2021/12/22 10:00:20;;;;;;;13.10;6.00;;;;;;;-7.55;57.33;99702.04;24492;1354;3026161;-62
2021/12/22 10:02:49;;;;;;;11.10;5.00;;;;;;;-7.71;57.07;99704.35;24470;1354;3068983;-60
2021/12/22 10:05:19;;;;;;;13.50;5.60;;;;;;;-7.61;56.52;99700.26;24489;1353;3024930;-64
2021/12/22 10:08:07;;;;;;;11.10;4.40;;;;;;;-7.89;56.26;99700.63;24473;1354;3049112;-64
2021/12/22 10:11:00;;;;;;;8.90;4.10;;;;;;;-7.92;55.96;99698.20;24459;1354;3067386;-59
2021/12/22 10:13:30;;;;;;;6.20;3.20;;;;;;;-8.03;56.35;99697.48;24624;1354;3028011;-64
2021/12/22 10:16:00;;;;;;;3.40;1.80;;;;;;;-8.35;56.33;99698.27;24448;1352;3027142;-59
2021/12/22 10:18:29;;;;;;;5.70;3.40;;;;;;;-8.30;56.47;99699.20;24781;1354;3026590;-63
2021/12/22 10:21:23;;;;;;;7.80;3.00;;;;;;;-8.39;56.49;99703.45;24445;1353;3026779;-59
2021/12/22 10:23:54;;;;;;;6.40;3.60;;;;;;;-8.28;56.77;99702.14;24477;1358;3053288;-65
2021/12/22 10:26:26;;;;;;;8.40;3.90;;;;;;;-8.30;56.92;99688.50;24484;1355;3025121;-63
2021/12/22 10:28:59;;;;;;;6.80;3.20;;;;;;;-8.42;57.32;99703.57;24489;1359;3026949;-61
2021/12/22 10:31:39;;;;;;;9.30;4.40;;;;;;;-8.53;57.92;99700.12;24469;1355;3048102;-59
2021/12/22 10:34:20;;;;;;;11.60;3.60;;;;;;;-8.24;58.03;99684.88;24524;1361;3053773;-62
2021/12/22 10:36:51;;;;;;;8.10;4.80;;;;;;;-8.03;57.14;99689.85;24487;1358;3053037;-60
2021/12/22 10:39:33;;;;;;;14.00;6.40;;;;;;;-7.85;56.77;99689.30;24508;1357;3027224;-60
2021/12/22 10:42:05;;;;;;;11.60;5.50;;;;;;;-7.53;56.12;99689.14;24467;1353;3047362;-61
2021/12/22 10:44:40;;;;;;;18.60;6.70;;;;;;;-7.54;56.29;99694.92;24509;1355;3025605;-61
2021/12/22 10:47:23;;;;;;;18.40;6.80;;;;;;;-7.41;55.78;99698.19;24453;1357;3028106;-60
2021/12/22 10:49:59;;;;;;;12.20;5.00;;;;;;;-7.47;56.38;99694.52;24444;1355;3055383;-63
2021/12/22 10:52:30;;;;;;;8.80;4.60;;;;;;;-7.55;56.58;99694.57;24408;1355;3049879;-61
2021/12/22 10:55:07;;;;;;;11.70;6.10;;;;;;;-7.67;56.71;99694.88;24424;1361;3026316;-61
2021/12/22 10:57:45;;;;;;;16.20;6.60;;;;;;;-7.46;56.41;99692.84;24463;1354;3050098;-61
2021/12/22 11:00:27;;;;;;;12.30;6.30;;;;;;;-7.38;55.98;99695.00;24448;1356;3067245;-61
2021/12/22 11:03:03;;;;;;;12.80;6.00;;;;;;;-7.46;55.76;99701.52;24474;1357;3050101;-63
2021/12/22 11:05:44;;;;;;;9.00;3.80;;;;;;;-7.45;55.33;99702.55;24474;1353;3050549;-59
2021/12/22 11:08:20;;;;;;;7.00;3.80;;;;;;;-7.52;54.73;99696.64;24460;1351;3051294;-59
2021/12/22 11:10:50;;;;;;;7.40;3.50;;;;;;;-7.48;54.07;99705.58;24395;1354;3057840;-62
2021/12/22 11:13:21;;;;;;;6.90;2.60;;;;;;;-7.65;54.67;99713.45;24445;1355;3027966;-60
2021/12/22 11:15:51;;;;;;;6.40;2.90;;;;;;;-7.69;55.59;99717.30;24537;1354;3026136;-60
2021/12/22 11:18:30;;;;;;;8.00;3.50;;;;;;;-7.49;55.26;99709.96;24446;1356;3026181;-61
2021/12/22 11:21:09;;;;;;;6.40;3.20;;;;;;;-7.39;55.35;99718.98;24480;1355;3067726;-60
2021/12/22 11:23:39;;;;;;;6.70;3.10;;;;;;;-7.74;56.57;99713.30;24502;1355;3048973;-61
2021/12/22 11:26:08;;;;;;;11.00;5.50;;;;;;;-7.81;57.57;99712.33;24476;1354;3026133;-65
2021/12/22 11:28:38;;;;;;;11.70;4.90;;;;;;;-7.69;57.60;99715.95;24471;1352;3026807;-61
2021/12/22 11:31:09;;;;;;;12.20;5.40;;;;;;;-7.59;57.54;99720.38;24467;1355;3026083;-54
2021/12/22 11:33:39;;;;;;;12.70;5.80;;;;;;;-7.50;57.96;99720.52;24451;1354;3025379;-63
2021/12/22 11:36:10;;;;;;;13.50;6.30;;;;;;;-7.51;58.67;99719.80;24492;1354;3025562;-62
2021/12/22 11:38:41;;;;;;;11.90;5.60;;;;;;;-7.48;59.71;99721.56;24463;1358;3026942;-64
2021/12/22 11:41:14;;;;;;;11.70;6.50;;;;;;;-7.58;60.48;99726.16;24460;1355;3026588;-61
2021/12/22 11:43:44;;;;;;;17.10;7.40;;;;;;;-7.66;62.17;99724.67;24516;1357;3029108;-57
2021/12/22 11:46:13;;;;;;;14.70;6.80;;;;;;;-7.59;62.39;99725.48;24481;1358;3025967;-61
2021/12/22 11:48:41;;;;;;;21.10;7.70;;;;;;;-7.51;62.98;99726.79;24473;1352;3025827;-65
2021/12/22 11:51:27;;;;;;;15.80;7.70;;;;;;;-7.53;63.30;99731.54;24459;1360;3048518;-62
2021/12/22 11:53:58;;;;;;;19.60;8.90;;;;;;;-7.72;64.63;99739.36;24469;1354;3051366;-62